createdAt,value
2023-05-16T00:01:52.746Z,11.80
2023-05-16T00:04:54.481Z,11.80
2023-05-16T00:07:56.124Z,11.50
2023-05-16T00:10:57.713Z,11.50
2023-05-16T00:13:59.384Z,11.80
2023-05-16T00:17:01.241Z,11.50
2023-05-16T00:20:10.984Z,11.50
2023-05-16T00:23:12.888Z,11.70
2023-05-16T00:26:14.507Z,11.50
2023-05-16T00:29:17.110Z,11.60
2023-05-16T00:32:19.034Z,11.40
2023-05-16T00:35:20.756Z,11.40
2023-05-16T00:38:22.422Z,10.80
2023-05-16T00:41:24.087Z,12.00
2023-05-16T00:44:25.915Z,10.80
2023-05-16T00:47:27.590Z,11.40
2023-05-16T00:50:29.687Z,11.30
2023-05-16T00:53:31.477Z,11.10
2023-05-16T00:56:34.571Z,11.00
2023-05-16T00:59:36.362Z,10.80
2023-05-16T01:02:38.483Z,10.60
2023-05-16T01:05:40.791Z,11.60
2023-05-16T01:08:42.435Z,10.80
2023-05-16T01:11:57.086Z,12.00
2023-05-16T01:15:14.156Z,10.60
2023-05-16T01:18:56.672Z,10.80
2023-05-16T01:22:05.578Z,10.90
2023-05-16T01:25:39.348Z,10.60
2023-05-16T01:28:42.086Z,10.60
2023-05-16T01:31:43.704Z,10.50
2023-05-16T01:34:45.682Z,10.50
2023-05-16T01:38:00.142Z,10.40
2023-05-16T01:41:13.195Z,10.40
2023-05-16T01:44:37.932Z,10.50
2023-05-16T01:47:43.858Z,10.20
2023-05-16T01:50:49.961Z,10.60
2023-05-16T01:53:55.144Z,10.30
2023-05-16T01:56:56.922Z,10.20
2023-05-16T01:59:59.099Z,10.00
2023-05-16T02:03:00.783Z,10.20
2023-05-16T02:06:02.413Z,9.70
2023-05-16T02:09:04.007Z,10.20
2023-05-16T02:12:06.020Z,10.10
2023-05-16T02:15:08.319Z,10.30
2023-05-16T02:18:09.914Z,10.20
2023-05-16T02:21:11.754Z,11.40
2023-05-16T02:24:13.294Z,10.00
2023-05-16T02:27:14.925Z,10.10
2023-05-16T02:30:16.520Z,10.10
2023-05-16T02:33:18.066Z,10.20
2023-05-16T02:36:19.652Z,9.80
2023-05-16T02:39:21.223Z,12.30
2023-05-16T02:42:22.766Z,10.10
2023-05-16T02:45:24.457Z,10.00
2023-05-16T02:48:26.096Z,10.40
2023-05-16T02:51:28.473Z,10.30
2023-05-16T02:54:30.146Z,9.80
2023-05-16T02:57:31.681Z,9.80
2023-05-16T03:00:33.424Z,9.80
2023-05-16T03:03:37.536Z,9.70
2023-05-16T03:06:39.226Z,10.20
2023-05-16T03:09:40.833Z,9.90
2023-05-16T03:12:42.665Z,10.00
2023-05-16T03:15:45.726Z,10.00
2023-05-16T03:18:47.644Z,9.80
2023-05-16T03:21:49.252Z,9.80
2023-05-16T03:24:50.967Z,9.80
2023-05-16T03:27:52.667Z,9.80
2023-05-16T03:30:54.285Z,9.90
2023-05-16T03:33:55.896Z,9.30
2023-05-16T03:36:57.637Z,9.60
2023-05-16T03:39:59.450Z,9.70
2023-05-16T03:43:01.011Z,9.40
2023-05-16T03:46:02.635Z,9.20
2023-05-16T03:49:04.467Z,9.30
2023-05-16T03:52:06.421Z,9.30
2023-05-16T03:55:09.169Z,9.30
2023-05-16T03:58:11.597Z,9.50
2023-05-16T04:01:13.156Z,9.10
2023-05-16T04:04:14.696Z,9.40
2023-05-16T04:07:16.370Z,9.20
2023-05-16T04:10:17.926Z,9.30
2023-05-16T04:13:19.784Z,8.70
2023-05-16T04:16:21.446Z,8.90
2023-05-16T04:19:23.299Z,8.60
2023-05-16T04:22:24.928Z,9.10
2023-05-16T04:25:26.980Z,9.20
2023-05-16T04:28:29.665Z,8.60
2023-05-16T04:31:31.541Z,9.00
2023-05-16T04:34:39.688Z,8.80
2023-05-16T04:37:42.365Z,9.00
2023-05-16T04:40:43.919Z,8.70
2023-05-16T04:43:45.632Z,8.90
2023-05-16T04:46:47.205Z,8.90
2023-05-16T04:49:48.860Z,8.80
2023-05-16T04:52:50.456Z,8.70
2023-05-16T04:55:52.905Z,8.70
2023-05-16T04:58:54.638Z,9.60
2023-05-16T05:01:56.242Z,8.70
2023-05-16T05:04:57.879Z,8.90
2023-05-16T05:08:00.910Z,8.80
2023-05-16T05:11:02.852Z,9.00
2023-05-16T05:14:04.535Z,8.60
2023-05-16T05:17:06.408Z,9.00
2023-05-16T05:20:08.619Z,8.90
2023-05-16T05:23:10.222Z,8.60
2023-05-16T05:26:12.080Z,9.00
2023-05-16T05:29:13.627Z,8.90
2023-05-16T05:32:15.286Z,8.90
2023-05-16T05:35:16.803Z,8.80
2023-05-16T05:38:18.355Z,9.00
2023-05-16T05:41:19.902Z,9.10
2023-05-16T05:44:21.453Z,10.00
2023-05-16T05:47:23.277Z,9.30
2023-05-16T05:50:24.926Z,9.30
2023-05-16T05:53:26.674Z,9.60
2023-05-16T05:56:28.392Z,9.60
2023-05-16T05:59:30.618Z,9.40
2023-05-16T06:02:32.432Z,9.80
2023-05-16T06:05:34.070Z,9.50
2023-05-16T06:08:35.705Z,9.70
2023-05-16T06:11:37.572Z,11.30
2023-05-16T06:14:39.706Z,9.70
2023-05-16T06:17:41.929Z,9.80
2023-05-16T06:20:43.505Z,9.90
2023-05-16T06:23:45.110Z,10.10
2023-05-16T06:26:49.915Z,9.90
2023-05-16T06:29:51.480Z,9.90
2023-05-16T06:32:53.135Z,10.10
2023-05-16T06:35:54.938Z,10.10
2023-05-16T06:38:56.524Z,10.40
2023-05-16T06:41:58.175Z,10.20
2023-05-16T06:44:59.814Z,10.70
2023-05-16T06:48:01.636Z,10.30
2023-05-16T06:51:03.601Z,10.00
2023-05-16T06:54:05.339Z,10.30
2023-05-16T06:57:08.432Z,10.40
2023-05-16T07:00:10.583Z,10.10
2023-05-16T07:03:13.768Z,9.90
2023-05-16T07:06:15.514Z,10.00
2023-05-16T07:09:17.121Z,10.50
2023-05-16T07:12:18.722Z,10.70
2023-05-16T07:15:20.525Z,10.40
2023-05-16T07:18:22.203Z,10.70
2023-05-16T07:21:23.772Z,11.40
2023-05-16T07:24:25.447Z,11.30
2023-05-16T07:27:28.028Z,11.60
2023-05-16T07:30:30.403Z,11.70
2023-05-16T07:33:32.071Z,11.40
2023-05-16T07:36:35.022Z,11.70
2023-05-16T07:39:36.597Z,12.10
2023-05-16T07:42:38.186Z,11.30
2023-05-16T07:45:40.122Z,11.30
2023-05-16T07:48:41.850Z,11.40
2023-05-16T07:51:43.639Z,11.80
2023-05-16T07:54:47.212Z,11.90
2023-05-16T07:57:50.591Z,12.10
2023-05-16T08:00:52.396Z,12.20
2023-05-16T08:03:54.124Z,14.00
2023-05-16T08:06:55.783Z,12.30
2023-05-16T08:09:57.361Z,12.90
2023-05-16T08:12:58.994Z,12.90
2023-05-16T08:16:00.660Z,13.20
2023-05-16T08:19:02.408Z,12.80
2023-05-16T08:22:06.782Z,12.80
2023-05-16T08:25:09.011Z,13.50
2023-05-16T08:28:13.472Z,13.40
2023-05-16T08:31:15.285Z,13.20
2023-05-16T08:34:16.906Z,13.50
2023-05-16T08:37:18.580Z,13.80
2023-05-16T08:40:22.234Z,13.30
2023-05-16T08:43:24.049Z,13.40
2023-05-16T08:46:27.718Z,13.50
2023-05-16T08:49:31.397Z,13.60
2023-05-16T08:52:33.458Z,13.40
2023-05-16T08:55:36.017Z,14.30
2023-05-16T08:58:38.295Z,13.10
2023-05-16T09:01:41.355Z,12.70
2023-05-16T09:04:45.648Z,12.50
2023-05-16T09:07:47.290Z,12.80
2023-05-16T09:10:48.902Z,12.50
2023-05-16T09:13:51.044Z,12.50
2023-05-16T09:17:09.659Z,13.40
2023-05-16T09:20:18.778Z,13.00
2023-05-16T09:23:25.437Z,13.20
2023-05-16T09:26:27.109Z,12.80
2023-05-16T09:29:29.254Z,13.60
2023-05-16T09:32:31.646Z,13.50
2023-05-16T09:38:38.077Z,13.80
2023-05-16T09:41:39.755Z,13.70
2023-05-16T09:44:42.099Z,14.20
2023-05-16T09:47:48.132Z,14.30
2023-05-16T09:50:54.149Z,14.10
2023-05-16T09:53:58.686Z,13.90
2023-05-16T09:57:02.814Z,13.80
2023-05-16T10:00:09.786Z,13.50
2023-05-16T10:03:12.320Z,13.60
2023-05-16T10:06:16.556Z,13.20
2023-05-16T10:09:18.963Z,13.00
2023-05-16T10:12:27.670Z,13.30
2023-05-16T10:15:30.151Z,13.10
2023-05-16T10:18:34.380Z,13.50
2023-05-16T10:21:38.577Z,13.40
2023-05-16T10:24:55.049Z,14.10
2023-05-16T10:27:57.648Z,14.10
2023-05-16T10:31:01.518Z,13.90
2023-05-16T10:34:03.989Z,14.00
2023-05-16T10:37:06.374Z,14.00
2023-05-16T10:40:09.684Z,14.40
2023-05-16T10:43:22.263Z,14.20
2023-05-16T10:46:25.023Z,14.20
2023-05-16T10:49:27.759Z,14.40
2023-05-16T10:52:35.576Z,14.20
2023-05-16T10:55:39.345Z,14.00
2023-05-16T10:58:42.519Z,13.90
2023-05-16T11:01:44.177Z,14.50
2023-05-16T11:04:48.237Z,13.90
2023-05-16T11:08:04.802Z,13.80
2023-05-16T11:11:41.854Z,14.20
2023-05-16T11:14:45.041Z,14.70
2023-05-16T11:17:47.437Z,15.50
2023-05-16T11:20:52.998Z,14.60
2023-05-16T11:24:29.897Z,14.60
2023-05-16T11:27:36.399Z,14.90
2023-05-16T11:30:43.440Z,14.70
2023-05-16T11:33:48.182Z,15.00
2023-05-16T11:36:49.914Z,14.90
2023-05-16T11:39:51.764Z,14.50
2023-05-16T11:42:53.378Z,14.10
2023-05-16T11:45:56.036Z,13.90
2023-05-16T11:48:57.728Z,15.00
2023-05-16T11:51:59.616Z,13.90
2023-05-16T11:55:01.495Z,13.60
2023-05-16T11:58:03.112Z,13.50
2023-05-16T12:01:05.513Z,13.60
2023-05-16T12:04:14.615Z,13.60
2023-05-16T12:07:16.512Z,13.80
2023-05-16T12:10:18.357Z,14.40
2023-05-16T12:13:22.821Z,14.70
2023-05-16T12:16:24.676Z,14.90
2023-05-16T12:19:26.725Z,15.10
2023-05-16T12:22:28.795Z,15.00
2023-05-16T12:25:32.439Z,15.60
2023-05-16T12:28:36.130Z,16.00
2023-05-16T12:31:40.353Z,16.10
2023-05-16T12:34:52.722Z,16.70
2023-05-16T12:37:54.543Z,17.10
2023-05-16T12:40:59.442Z,17.00
2023-05-16T12:44:30.065Z,16.80
2023-05-16T12:47:40.581Z,16.10
2023-05-16T12:50:42.392Z,15.70
2023-05-16T12:54:05.549Z,15.70
2023-05-16T12:57:11.124Z,16.10
2023-05-16T13:00:14.136Z,16.30
2023-05-16T13:03:16.206Z,16.50
2023-05-16T13:06:18.490Z,16.80
2023-05-16T13:09:20.116Z,16.90
2023-05-16T13:12:26.755Z,16.80
2023-05-16T13:15:28.895Z,18.00
2023-05-16T13:18:31.376Z,17.20
2023-05-16T13:21:33.236Z,16.00
2023-05-16T13:24:34.902Z,16.10
2023-05-16T13:27:36.767Z,16.30
2023-05-16T13:30:38.365Z,16.30
2023-05-16T13:33:39.966Z,16.60
2023-05-16T13:36:53.177Z,16.30
2023-05-16T13:39:56.099Z,17.90
2023-05-16T13:42:57.745Z,17.10
2023-05-16T13:45:59.446Z,17.40
2023-05-16T13:49:02.016Z,17.00
2023-05-16T13:52:03.840Z,16.30
2023-05-16T13:55:06.369Z,15.90
2023-05-16T13:58:07.961Z,16.10
2023-05-16T14:01:09.644Z,16.00
2023-05-16T14:04:11.361Z,16.60
2023-05-16T14:07:12.981Z,16.40
2023-05-16T14:10:14.704Z,15.60
2023-05-16T14:13:16.276Z,15.70
2023-05-16T14:16:18.024Z,16.00
2023-05-16T14:19:19.923Z,17.60
2023-05-16T14:22:21.599Z,16.90
2023-05-16T14:25:23.357Z,18.10
2023-05-16T14:28:24.966Z,16.40
2023-05-16T14:31:26.737Z,15.80
2023-05-16T14:34:28.442Z,15.90
2023-05-16T14:37:30.438Z,16.10
2023-05-16T14:40:32.007Z,15.70
2023-05-16T14:43:33.612Z,17.30
2023-05-16T14:46:35.399Z,15.70
2023-05-16T14:49:37.065Z,15.50
2023-05-16T14:52:40.641Z,16.90
2023-05-16T14:55:42.336Z,14.70
2023-05-16T14:59:21.206Z,15.10
2023-05-16T15:02:22.803Z,15.20
2023-05-16T15:05:25.608Z,14.70
2023-05-16T15:08:27.296Z,14.70
2023-05-16T15:11:29.213Z,15.10
2023-05-16T15:14:30.785Z,15.90
2023-05-16T15:17:32.456Z,14.80
2023-05-16T15:20:34.276Z,14.80
2023-05-16T15:23:36.822Z,14.40
2023-05-16T15:26:39.594Z,14.60
2023-05-16T15:29:41.221Z,14.30
2023-05-16T15:32:42.876Z,14.30
2023-05-16T15:35:44.473Z,14.40
2023-05-16T15:38:47.591Z,14.30
2023-05-16T15:42:08.495Z,14.30
2023-05-16T15:45:12.356Z,13.70
2023-05-16T15:48:13.953Z,14.10
2023-05-16T15:51:16.399Z,14.20
2023-05-16T15:54:17.980Z,14.30
2023-05-16T15:57:19.663Z,14.20
2023-05-16T16:00:21.278Z,14.10
2023-05-16T16:03:23.046Z,14.70
2023-05-16T16:06:24.697Z,14.70
2023-05-16T16:09:26.432Z,14.20
2023-05-16T16:12:31.199Z,14.40
2023-05-16T16:15:33.861Z,14.10
2023-05-16T16:18:35.756Z,14.20
2023-05-16T16:21:37.505Z,14.00
2023-05-16T16:24:39.111Z,13.80
2023-05-16T16:27:41.114Z,13.80
2023-05-16T16:30:44.797Z,14.10
2023-05-16T16:33:49.008Z,14.10
2023-05-16T16:36:50.671Z,13.80
2023-05-16T16:39:52.397Z,14.10
2023-05-16T16:42:54.026Z,15.20
2023-05-16T16:45:55.694Z,14.10
2023-05-16T16:48:57.388Z,15.00
2023-05-16T16:51:59.014Z,13.60
2023-05-16T16:55:00.807Z,15.80
2023-05-16T16:58:02.378Z,13.90
2023-05-16T17:01:04.291Z,13.50
2023-05-16T17:04:06.606Z,14.70
2023-05-16T17:07:08.443Z,13.90
2023-05-16T17:10:10.471Z,13.20
2023-05-16T17:13:14.178Z,13.80
2023-05-16T17:16:16.340Z,13.60
2023-05-16T17:19:18.195Z,13.80
2023-05-16T17:22:22.295Z,13.80
2023-05-16T17:25:23.919Z,12.50
2023-05-16T17:28:25.989Z,13.70
2023-05-16T17:31:28.052Z,13.40
2023-05-16T17:34:29.849Z,14.70
2023-05-16T17:37:32.477Z,13.60
2023-05-16T17:40:34.180Z,14.60
2023-05-16T17:43:35.876Z,14.60
2023-05-16T17:46:38.331Z,13.20
2023-05-16T17:49:40.276Z,13.30
2023-05-16T17:52:42.029Z,13.50
2023-05-16T17:55:43.634Z,14.50
2023-05-16T17:58:46.021Z,13.40
2023-05-16T18:01:48.104Z,13.20
2023-05-16T18:04:49.796Z,13.60
2023-05-16T18:07:51.708Z,13.00
2023-05-16T18:10:53.282Z,12.90
2023-05-16T18:13:55.305Z,12.80
2023-05-16T18:16:57.071Z,13.10
2023-05-16T18:19:58.866Z,12.90
2023-05-16T18:23:02.450Z,12.70
2023-05-16T18:26:04.169Z,13.60
2023-05-16T18:29:05.791Z,12.70
2023-05-16T18:32:07.794Z,12.60
2023-05-16T18:35:09.662Z,12.80
2023-05-16T18:38:20.182Z,13.00
2023-05-16T18:41:26.898Z,12.90
2023-05-16T18:44:28.786Z,12.40
2023-05-16T18:47:30.767Z,13.00
2023-05-16T18:50:32.534Z,12.90
2023-05-16T18:53:36.552Z,12.80
2023-05-16T18:56:38.260Z,13.00
2023-05-16T18:59:39.912Z,14.00
2023-05-16T19:02:42.818Z,12.60
2023-05-16T19:05:45.048Z,14.10
2023-05-16T19:08:47.979Z,12.60
2023-05-16T19:11:50.668Z,12.40
2023-05-16T19:14:52.315Z,12.70
2023-05-16T19:17:54.023Z,13.30
2023-05-16T19:20:55.958Z,12.50
2023-05-16T19:23:57.550Z,12.30
2023-05-16T19:26:59.156Z,13.70
2023-05-16T19:30:00.782Z,12.60
2023-05-16T19:33:02.497Z,12.30
2023-05-16T19:36:07.785Z,12.40
2023-05-16T19:39:09.608Z,12.50
2023-05-16T19:42:11.433Z,12.40
2023-05-16T19:45:13.041Z,12.40
2023-05-16T19:48:14.867Z,12.60
2023-05-16T19:51:23.788Z,12.40
2023-05-16T19:54:31.568Z,12.40
2023-05-16T19:57:33.260Z,12.40
2023-05-16T20:00:34.849Z,14.20
2023-05-16T20:03:36.940Z,12.30
2023-05-16T20:06:38.779Z,12.40
2023-05-16T20:09:40.631Z,12.40
2023-05-16T20:12:42.807Z,12.20
2023-05-16T20:15:44.486Z,12.10
2023-05-16T20:18:46.591Z,12.40
2023-05-16T20:21:48.373Z,11.90
2023-05-16T20:24:50.167Z,11.80
2023-05-16T20:27:51.761Z,12.50
2023-05-16T20:30:53.410Z,12.20
2023-05-16T20:33:55.147Z,12.00
2023-05-16T20:36:57.433Z,12.20
2023-05-16T20:39:59.027Z,12.20
2023-05-16T20:43:00.657Z,12.20
2023-05-16T20:46:02.440Z,12.10
2023-05-16T20:49:04.189Z,11.80
2023-05-16T20:52:06.741Z,12.20
2023-05-16T20:55:08.625Z,11.70
2023-05-16T20:58:11.425Z,11.80
2023-05-16T21:01:13.109Z,11.80
2023-05-16T21:04:14.792Z,11.50
2023-05-16T21:07:16.410Z,11.90
2023-05-16T21:10:18.311Z,11.30
2023-05-16T21:13:20.785Z,11.60
2023-05-16T21:16:22.704Z,11.60
2023-05-16T21:19:24.420Z,11.20
2023-05-16T21:22:28.260Z,11.30
2023-05-16T21:25:30.068Z,12.70
2023-05-16T21:28:34.804Z,10.90
2023-05-16T21:31:43.243Z,10.90
2023-05-16T21:34:44.988Z,11.20
2023-05-16T21:37:46.638Z,10.90
2023-05-16T21:40:48.545Z,10.90
2023-05-16T21:43:50.154Z,11.10
2023-05-16T21:46:55.054Z,10.60
2023-05-16T21:49:59.240Z,10.30
2023-05-16T21:53:01.157Z,11.20
2023-05-16T21:56:03.088Z,10.10
2023-05-16T21:59:04.746Z,10.60
2023-05-16T22:02:07.682Z,10.10
2023-05-16T22:05:09.858Z,10.10
2023-05-16T22:08:11.707Z,10.20
2023-05-16T22:11:13.912Z,9.90
2023-05-16T22:14:15.722Z,10.30
2023-05-16T22:17:19.356Z,10.00
2023-05-16T22:20:23.736Z,9.80
2023-05-16T22:23:25.573Z,10.10
2023-05-16T22:26:27.248Z,9.90
2023-05-16T22:29:38.071Z,9.80
2023-05-16T22:32:39.921Z,9.80
2023-05-16T22:35:41.656Z,10.10
2023-05-16T22:38:43.250Z,9.80
2023-05-16T22:41:44.923Z,10.00
2023-05-16T22:44:46.692Z,9.70
2023-05-16T22:47:48.390Z,9.40
2023-05-16T22:50:50.306Z,9.60
2023-05-16T22:53:54.090Z,9.70
2023-05-16T22:56:56.006Z,9.80
2023-05-16T22:59:57.651Z,9.50
2023-05-16T23:02:59.554Z,9.80
2023-05-16T23:06:01.366Z,9.20
2023-05-16T23:09:04.580Z,9.60
2023-05-16T23:12:06.642Z,10.20
2023-05-16T23:15:10.217Z,9.30
2023-05-16T23:18:12.659Z,9.20
2023-05-16T23:21:14.332Z,11.30
2023-05-16T23:24:16.108Z,9.10
2023-05-16T23:27:17.757Z,9.20
2023-05-16T23:30:19.488Z,9.30
2023-05-16T23:33:21.194Z,9.20
2023-05-16T23:36:22.918Z,8.90
2023-05-16T23:39:25.187Z,9.10
2023-05-16T23:42:26.795Z,9.30
2023-05-16T23:45:30.238Z,9.20
2023-05-16T23:48:32.154Z,8.80
2023-05-16T23:51:52.331Z,8.70
2023-05-16T23:54:55.443Z,9.00
2023-05-16T23:57:57.071Z,8.80
